sensor_id;sensor_type;location;lat;lon;timestamp;temperature;humidity
29713;DHT22;16623;53.632;10.016;2023-08-24T00:00:15;18.90;99.90
29713;DHT22;16623;53.632;10.016;2023-08-24T00:02:41;19.00;99.90
29713;DHT22;16623;53.632;10.016;2023-08-24T00:05:08;18.90;99.90
29713;DHT22;16623;53.632;10.016;2023-08-24T00:07:34;19.00;99.90
29713;DHT22;16623;53.632;10.016;2023-08-24T00:09:59;19.00;99.90
29713;DHT22;16623;53.632;10.016;2023-08-24T00:12:25;18.90;99.90
29713;DHT22;16623;53.632;10.016;2023-08-24T00:14:51;19.00;99.90
29713;DHT22;16623;53.632;10.016;2023-08-24T00:17:16;19.00;99.90
29713;DHT22;16623;53.632;10.016;2023-08-24T00:19:42;19.00;99.90
29713;DHT22;16623;53.632;10.016;2023-08-24T00:22:07;18.90;99.90
29713;DHT22;16623;53.632;10.016;2023-08-24T00:24:33;19.00;99.90
29713;DHT22;16623;53.632;10.016;2023-08-24T00:26:58;19.00;99.90
29713;DHT22;16623;53.632;10.016;2023-08-24T00:29:26;18.90;99.90
29713;DHT22;16623;53.632;10.016;2023-08-24T00:31:52;19.00;99.90
29713;DHT22;16623;53.632;10.016;2023-08-24T00:34:18;19.00;99.90
29713;DHT22;16623;53.632;10.016;2023-08-24T00:36:43;18.90;99.90
29713;DHT22;16623;53.632;10.016;2023-08-24T00:39:08;18.80;99.90
29713;DHT22;16623;53.632;10.016;2023-08-24T00:41:34;18.90;99.90
29713;DHT22;16623;53.632;10.016;2023-08-24T00:43:59;18.90;99.90
29713;DHT22;16623;53.632;10.016;2023-08-24T00:46:25;18.90;99.90
29713;DHT22;16623;53.632;10.016;2023-08-24T00:48:53;18.90;99.90
29713;DHT22;16623;53.632;10.016;2023-08-24T00:51:22;18.90;99.90
29713;DHT22;16623;53.632;10.016;2023-08-24T00:53:48;18.90;99.90
29713;DHT22;16623;53.632;10.016;2023-08-24T00:56:14;18.90;99.90
29713;DHT22;16623;53.632;10.016;2023-08-24T00:58:40;18.20;99.90
29713;DHT22;16623;53.632;10.016;2023-08-24T01:01:06;18.80;99.90
29713;DHT22;16623;53.632;10.016;2023-08-24T01:03:31;18.80;99.90
29713;DHT22;16623;53.632;10.016;2023-08-24T01:05:57;18.80;99.90
29713;DHT22;16623;53.632;10.016;2023-08-24T01:08:23;18.80;99.90
29713;DHT22;16623;53.632;10.016;2023-08-24T01:10:59;18.80;99.90
29713;DHT22;16623;53.632;10.016;2023-08-24T01:13:35;18.80;99.90
29713;DHT22;16623;53.632;10.016;2023-08-24T01:16:14;18.80;99.90
29713;DHT22;16623;53.632;10.016;2023-08-24T01:18:42;18.70;99.90
29713;DHT22;16623;53.632;10.016;2023-08-24T01:21:08;18.60;99.90
29713;DHT22;16623;53.632;10.016;2023-08-24T01:23:41;18.70;99.90
29713;DHT22;16623;53.632;10.016;2023-08-24T01:26:17;18.60;99.90
29713;DHT22;16623;53.632;10.016;2023-08-24T01:28:43;18.60;99.90
29713;DHT22;16623;53.632;10.016;2023-08-24T01:31:09;18.60;99.90
29713;DHT22;16623;53.632;10.016;2023-08-24T01:36:01;18.40;99.90
29713;DHT22;16623;53.632;10.016;2023-08-24T01:38:28;18.40;99.90
29713;DHT22;16623;53.632;10.016;2023-08-24T01:41:11;18.40;99.90
29713;DHT22;16623;53.632;10.016;2023-08-24T01:43:39;18.40;99.90
29713;DHT22;16623;53.632;10.016;2023-08-24T01:46:07;18.30;99.90
29713;DHT22;16623;53.632;10.016;2023-08-24T01:48:33;18.30;99.90
29713;DHT22;16623;53.632;10.016;2023-08-24T01:51:00;18.40;99.90
29713;DHT22;16623;53.632;10.016;2023-08-24T01:53:28;18.30;99.90
29713;DHT22;16623;53.632;10.016;2023-08-24T01:55:53;18.30;99.90
29713;DHT22;16623;53.632;10.016;2023-08-24T01:58:20;18.10;99.90
29713;DHT22;16623;53.632;10.016;2023-08-24T02:00:45;18.10;99.90
29713;DHT22;16623;53.632;10.016;2023-08-24T02:03:11;18.10;99.90
29713;DHT22;16623;53.632;10.016;2023-08-24T02:05:37;18.10;99.90
29713;DHT22;16623;53.632;10.016;2023-08-24T02:08:03;18.10;99.90
29713;DHT22;16623;53.632;10.016;2023-08-24T02:10:28;18.10;99.90
29713;DHT22;16623;53.632;10.016;2023-08-24T02:12:54;17.90;99.90
29713;DHT22;16623;53.632;10.016;2023-08-24T02:15:19;17.90;99.90
29713;DHT22;16623;53.632;10.016;2023-08-24T02:17:45;17.90;99.90
29713;DHT22;16623;53.632;10.016;2023-08-24T02:20:10;17.90;99.90
29713;DHT22;16623;53.632;10.016;2023-08-24T02:22:39;17.90;99.90
29713;DHT22;16623;53.632;10.016;2023-08-24T02:25:09;17.80;99.90
29713;DHT22;16623;53.632;10.016;2023-08-24T02:27:34;17.80;99.90
29713;DHT22;16623;53.632;10.016;2023-08-24T02:30:00;17.70;99.90
29713;DHT22;16623;53.632;10.016;2023-08-24T02:32:26;17.70;99.90
29713;DHT22;16623;53.632;10.016;2023-08-24T02:34:51;17.60;99.90
29713;DHT22;16623;53.632;10.016;2023-08-24T02:37:17;17.60;99.90
29713;DHT22;16623;53.632;10.016;2023-08-24T02:39:42;17.50;99.90
29713;DHT22;16623;53.632;10.016;2023-08-24T02:42:08;17.50;99.90
29713;DHT22;16623;53.632;10.016;2023-08-24T02:44:33;17.40;99.90
29713;DHT22;16623;53.632;10.016;2023-08-24T02:46:58;17.40;99.90
29713;DHT22;16623;53.632;10.016;2023-08-24T02:49:24;17.50;99.90
29713;DHT22;16623;53.632;10.016;2023-08-24T02:51:53;17.50;99.90
29713;DHT22;16623;53.632;10.016;2023-08-24T02:54:19;17.60;99.90
29713;DHT22;16623;53.632;10.016;2023-08-24T02:56:44;17.60;99.90
29713;DHT22;16623;53.632;10.016;2023-08-24T02:59:09;17.70;99.90
29713;DHT22;16623;53.632;10.016;2023-08-24T03:01:35;17.60;99.90
29713;DHT22;16623;53.632;10.016;2023-08-24T03:04:04;17.60;99.90
29713;DHT22;16623;53.632;10.016;2023-08-24T03:06:30;17.50;99.90
29713;DHT22;16623;53.632;10.016;2023-08-24T03:08:56;17.50;99.90
29713;DHT22;16623;53.632;10.016;2023-08-24T03:11:21;17.60;99.90
29713;DHT22;16623;53.632;10.016;2023-08-24T03:13:47;17.50;99.90
29713;DHT22;16623;53.632;10.016;2023-08-24T03:16:12;17.50;99.90
29713;DHT22;16623;53.632;10.016;2023-08-24T03:18:38;17.50;99.90
29713;DHT22;16623;53.632;10.016;2023-08-24T03:21:03;17.10;99.90
29713;DHT22;16623;53.632;10.016;2023-08-24T03:23:29;17.40;99.90
29713;DHT22;16623;53.632;10.016;2023-08-24T03:25:55;17.40;99.90
29713;DHT22;16623;53.632;10.016;2023-08-24T03:28:21;17.40;99.90
29713;DHT22;16623;53.632;10.016;2023-08-24T03:30:49;17.30;99.90
29713;DHT22;16623;53.632;10.016;2023-08-24T03:33:15;17.30;99.90
29713;DHT22;16623;53.632;10.016;2023-08-24T03:35:41;17.30;99.90
29713;DHT22;16623;53.632;10.016;2023-08-24T03:38:07;17.30;99.90
29713;DHT22;16623;53.632;10.016;2023-08-24T03:40:32;17.20;99.90
29713;DHT22;16623;53.632;10.016;2023-08-24T03:42:58;17.30;99.90
29713;DHT22;16623;53.632;10.016;2023-08-24T03:45:23;17.20;99.90
29713;DHT22;16623;53.632;10.016;2023-08-24T03:47:49;17.30;99.90
29713;DHT22;16623;53.632;10.016;2023-08-24T03:50:15;17.20;99.90
29713;DHT22;16623;53.632;10.016;2023-08-24T03:52:41;17.30;99.90
29713;DHT22;16623;53.632;10.016;2023-08-24T03:55:07;17.20;99.90
29713;DHT22;16623;53.632;10.016;2023-08-24T03:57:33;17.30;99.90
29713;DHT22;16623;53.632;10.016;2023-08-24T03:59:58;18.00;99.90
29713;DHT22;16623;53.632;10.016;2023-08-24T04:02:24;17.30;99.90
29713;DHT22;16623;53.632;10.016;2023-08-24T04:04:52;17.30;99.90
29713;DHT22;16623;53.632;10.016;2023-08-24T04:07:18;17.20;99.90
29713;DHT22;16623;53.632;10.016;2023-08-24T04:09:44;17.20;99.90
29713;DHT22;16623;53.632;10.016;2023-08-24T04:12:11;17.30;99.90
29713;DHT22;16623;53.632;10.016;2023-08-24T04:14:36;17.20;99.90
29713;DHT22;16623;53.632;10.016;2023-08-24T04:17:02;17.20;99.90
29713;DHT22;16623;53.632;10.016;2023-08-24T04:19:27;17.30;99.90
29713;DHT22;16623;53.632;10.016;2023-08-24T04:21:53;17.20;99.90
29713;DHT22;16623;53.632;10.016;2023-08-24T04:24:18;17.20;99.90
29713;DHT22;16623;53.632;10.016;2023-08-24T04:26:44;17.20;99.90
29713;DHT22;16623;53.632;10.016;2023-08-24T04:29:09;17.20;99.90
29713;DHT22;16623;53.632;10.016;2023-08-24T04:31:35;17.20;99.90
29713;DHT22;16623;53.632;10.016;2023-08-24T04:34:02;17.10;99.90
29713;DHT22;16623;53.632;10.016;2023-08-24T04:36:29;17.00;99.90
29713;DHT22;16623;53.632;10.016;2023-08-24T04:38:54;17.00;99.90
29713;DHT22;16623;53.632;10.016;2023-08-24T04:43:46;17.00;99.90
29713;DHT22;16623;53.632;10.016;2023-08-24T04:46:11;17.10;99.90
29713;DHT22;16623;53.632;10.016;2023-08-24T04:48:37;17.00;99.90
29713;DHT22;16623;53.632;10.016;2023-08-24T04:51:02;17.10;99.90
29713;DHT22;16623;53.632;10.016;2023-08-24T04:53:28;17.00;99.90
29713;DHT22;16623;53.632;10.016;2023-08-24T04:55:53;17.10;99.90
29713;DHT22;16623;53.632;10.016;2023-08-24T04:58:19;17.20;99.90
29713;DHT22;16623;53.632;10.016;2023-08-24T05:00:45;17.20;99.90
29713;DHT22;16623;53.632;10.016;2023-08-24T05:03:10;17.30;99.90
29713;DHT22;16623;53.632;10.016;2023-08-24T05:05:36;17.20;99.90
29713;DHT22;16623;53.632;10.016;2023-08-24T05:08:04;17.20;99.90
29713;DHT22;16623;53.632;10.016;2023-08-24T05:10:37;17.30;99.90
29713;DHT22;16623;53.632;10.016;2023-08-24T05:13:03;17.20;99.90
29713;DHT22;16623;53.632;10.016;2023-08-24T05:15:29;17.40;99.90
29713;DHT22;16623;53.632;10.016;2023-08-24T05:17:55;17.60;99.90
29713;DHT22;16623;53.632;10.016;2023-08-24T05:20:24;17.50;99.90
29713;DHT22;16623;53.632;10.016;2023-08-24T05:22:50;17.50;99.90
29713;DHT22;16623;53.632;10.016;2023-08-24T05:25:15;17.50;99.90
29713;DHT22;16623;53.632;10.016;2023-08-24T05:27:44;17.50;99.90
29713;DHT22;16623;53.632;10.016;2023-08-24T05:30:09;17.60;99.90
29713;DHT22;16623;53.632;10.016;2023-08-24T05:32:35;17.60;99.90
29713;DHT22;16623;53.632;10.016;2023-08-24T05:35:05;17.60;99.90
29713;DHT22;16623;53.632;10.016;2023-08-24T05:37:31;18.00;99.90
29713;DHT22;16623;53.632;10.016;2023-08-24T05:39:59;17.60;99.90
29713;DHT22;16623;53.632;10.016;2023-08-24T05:42:24;17.70;99.90
29713;DHT22;16623;53.632;10.016;2023-08-24T05:44:50;17.80;99.90
29713;DHT22;16623;53.632;10.016;2023-08-24T05:47:15;17.90;99.90
29713;DHT22;16623;53.632;10.016;2023-08-24T05:49:41;16.30;99.90
29713;DHT22;16623;53.632;10.016;2023-08-24T05:52:06;17.00;99.90
29713;DHT22;16623;53.632;10.016;2023-08-24T05:54:32;17.90;99.90
29713;DHT22;16623;53.632;10.016;2023-08-24T05:56:57;17.90;99.90
29713;DHT22;16623;53.632;10.016;2023-08-24T05:59:26;17.90;99.90
29713;DHT22;16623;53.632;10.016;2023-08-24T06:01:51;18.00;99.90
29713;DHT22;16623;53.632;10.016;2023-08-24T06:04:17;17.90;99.90
29713;DHT22;16623;53.632;10.016;2023-08-24T06:06:43;17.80;99.90
29713;DHT22;16623;53.632;10.016;2023-08-24T06:09:08;17.80;99.90
29713;DHT22;16623;53.632;10.016;2023-08-24T06:11:35;17.80;99.90
29713;DHT22;16623;53.632;10.016;2023-08-24T06:14:03;17.80;99.90
29713;DHT22;16623;53.632;10.016;2023-08-24T06:16:29;17.80;99.90
29713;DHT22;16623;53.632;10.016;2023-08-24T06:18:55;17.80;99.90
29713;DHT22;16623;53.632;10.016;2023-08-24T06:21:21;17.80;99.90
29713;DHT22;16623;53.632;10.016;2023-08-24T06:23:46;17.90;99.90
29713;DHT22;16623;53.632;10.016;2023-08-24T06:26:13;17.90;99.90
29713;DHT22;16623;53.632;10.016;2023-08-24T06:28:39;17.90;99.90
29713;DHT22;16623;53.632;10.016;2023-08-24T06:31:05;17.90;99.90
29713;DHT22;16623;53.632;10.016;2023-08-24T06:33:36;17.90;99.90
29713;DHT22;16623;53.632;10.016;2023-08-24T06:36:03;18.00;99.90
29713;DHT22;16623;53.632;10.016;2023-08-24T06:38:30;18.00;99.90
29713;DHT22;16623;53.632;10.016;2023-08-24T06:40:57;18.00;99.90
29713;DHT22;16623;53.632;10.016;2023-08-24T06:43:24;18.10;99.90
29713;DHT22;16623;53.632;10.016;2023-08-24T06:45:50;18.10;99.90
29713;DHT22;16623;53.632;10.016;2023-08-24T06:48:15;18.30;99.90
29713;DHT22;16623;53.632;10.016;2023-08-24T06:50:41;18.30;99.90
29713;DHT22;16623;53.632;10.016;2023-08-24T06:53:07;18.40;99.90
29713;DHT22;16623;53.632;10.016;2023-08-24T06:55:32;18.40;99.90
29713;DHT22;16623;53.632;10.016;2023-08-24T06:57:58;18.50;99.90
29713;DHT22;16623;53.632;10.016;2023-08-24T07:00:23;18.40;99.90
29713;DHT22;16623;53.632;10.016;2023-08-24T07:02:50;18.50;99.90
29713;DHT22;16623;53.632;10.016;2023-08-24T07:05:16;18.50;99.90
29713;DHT22;16623;53.632;10.016;2023-08-24T07:07:46;18.60;99.90
29713;DHT22;16623;53.632;10.016;2023-08-24T07:10:13;18.60;99.90
29713;DHT22;16623;53.632;10.016;2023-08-24T07:12:39;18.70;99.90
29713;DHT22;16623;53.632;10.016;2023-08-24T07:15:10;18.70;99.90
29713;DHT22;16623;53.632;10.016;2023-08-24T07:17:36;18.80;99.90
29713;DHT22;16623;53.632;10.016;2023-08-24T07:20:02;18.80;99.90
29713;DHT22;16623;53.632;10.016;2023-08-24T07:22:30;18.80;99.90
29713;DHT22;16623;53.632;10.016;2023-08-24T07:24:56;18.80;99.90
29713;DHT22;16623;53.632;10.016;2023-08-24T07:27:22;18.90;99.90
29713;DHT22;16623;53.632;10.016;2023-08-24T07:29:47;19.00;99.90
29713;DHT22;16623;53.632;10.016;2023-08-24T07:32:13;19.10;99.90
29713;DHT22;16623;53.632;10.016;2023-08-24T07:34:39;19.10;99.90
29713;DHT22;16623;53.632;10.016;2023-08-24T07:37:04;19.10;99.90
29713;DHT22;16623;53.632;10.016;2023-08-24T07:39:30;19.10;99.90
29713;DHT22;16623;53.632;10.016;2023-08-24T07:41:55;19.10;99.90
29713;DHT22;16623;53.632;10.016;2023-08-24T07:44:21;19.20;99.90
29713;DHT22;16623;53.632;10.016;2023-08-24T07:46:49;19.30;99.90
29713;DHT22;16623;53.632;10.016;2023-08-24T07:49:15;19.30;99.90
29713;DHT22;16623;53.632;10.016;2023-08-24T07:51:41;19.40;99.90
29713;DHT22;16623;53.632;10.016;2023-08-24T07:54:08;19.50;99.90
29713;DHT22;16623;53.632;10.016;2023-08-24T07:56:34;19.70;99.90
29713;DHT22;16623;53.632;10.016;2023-08-24T07:58:59;19.80;99.90
29713;DHT22;16623;53.632;10.016;2023-08-24T08:01:25;19.90;99.90
29713;DHT22;16623;53.632;10.016;2023-08-24T08:03:50;19.90;99.90
29713;DHT22;16623;53.632;10.016;2023-08-24T08:06:16;19.90;99.90
29713;DHT22;16623;53.632;10.016;2023-08-24T08:08:41;19.90;99.90
29713;DHT22;16623;53.632;10.016;2023-08-24T08:11:07;20.00;99.90
29713;DHT22;16623;53.632;10.016;2023-08-24T08:13:34;20.20;99.90
29713;DHT22;16623;53.632;10.016;2023-08-24T08:16:04;20.00;99.90
29713;DHT22;16623;53.632;10.016;2023-08-24T08:18:31;20.10;99.90
29713;DHT22;16623;53.632;10.016;2023-08-24T08:20:57;20.10;99.90
29713;DHT22;16623;53.632;10.016;2023-08-24T08:23:22;20.10;99.90
29713;DHT22;16623;53.632;10.016;2023-08-24T08:25:48;20.20;99.90
29713;DHT22;16623;53.632;10.016;2023-08-24T08:28:13;20.20;99.90
29713;DHT22;16623;53.632;10.016;2023-08-24T08:30:39;20.30;99.90
29713;DHT22;16623;53.632;10.016;2023-08-24T08:33:04;20.40;99.90
29713;DHT22;16623;53.632;10.016;2023-08-24T08:35:30;20.50;99.90
29713;DHT22;16623;53.632;10.016;2023-08-24T08:37:57;20.50;99.90
29713;DHT22;16623;53.632;10.016;2023-08-24T08:40:25;20.60;99.90
29713;DHT22;16623;53.632;10.016;2023-08-24T08:42:57;20.70;99.90
29713;DHT22;16623;53.632;10.016;2023-08-24T08:45:25;20.70;99.90
29713;DHT22;16623;53.632;10.016;2023-08-24T08:47:59;20.80;99.90
29713;DHT22;16623;53.632;10.016;2023-08-24T08:50:25;20.70;99.90
29713;DHT22;16623;53.632;10.016;2023-08-24T08:52:51;20.70;99.90
29713;DHT22;16623;53.632;10.016;2023-08-24T08:55:17;20.70;99.90
29713;DHT22;16623;53.632;10.016;2023-08-24T08:57:43;20.70;99.90
29713;DHT22;16623;53.632;10.016;2023-08-24T09:00:11;20.70;99.90
29713;DHT22;16623;53.632;10.016;2023-08-24T09:02:39;20.70;99.90
29713;DHT22;16623;53.632;10.016;2023-08-24T09:05:07;20.80;99.90
29713;DHT22;16623;53.632;10.016;2023-08-24T09:07:41;20.90;99.90
29713;DHT22;16623;53.632;10.016;2023-08-24T09:10:07;21.00;99.90
29713;DHT22;16623;53.632;10.016;2023-08-24T09:12:33;21.10;99.90
29713;DHT22;16623;53.632;10.016;2023-08-24T09:14:59;21.30;99.90
29713;DHT22;16623;53.632;10.016;2023-08-24T09:17:27;21.40;99.90
29713;DHT22;16623;53.632;10.016;2023-08-24T09:19:58;21.40;99.90
29713;DHT22;16623;53.632;10.016;2023-08-24T09:22:23;21.60;99.90
29713;DHT22;16623;53.632;10.016;2023-08-24T09:24:49;21.70;99.90
29713;DHT22;16623;53.632;10.016;2023-08-24T09:27:21;21.80;99.90
29713;DHT22;16623;53.632;10.016;2023-08-24T09:29:52;21.90;99.90
29713;DHT22;16623;53.632;10.016;2023-08-24T09:32:27;22.10;99.90
29713;DHT22;16623;53.632;10.016;2023-08-24T09:34:53;22.20;99.90
29713;DHT22;16623;53.632;10.016;2023-08-24T09:37:19;22.30;99.90
29713;DHT22;16623;53.632;10.016;2023-08-24T09:39:45;22.30;99.90
29713;DHT22;16623;53.632;10.016;2023-08-24T09:42:11;22.30;99.90
29713;DHT22;16623;53.632;10.016;2023-08-24T09:44:37;22.30;99.90
29713;DHT22;16623;53.632;10.016;2023-08-24T09:47:09;22.30;99.90
29713;DHT22;16623;53.632;10.016;2023-08-24T09:49:39;22.30;99.90
29713;DHT22;16623;53.632;10.016;2023-08-24T09:52:08;22.40;99.90
29713;DHT22;16623;53.632;10.016;2023-08-24T09:54:36;22.50;99.90
29713;DHT22;16623;53.632;10.016;2023-08-24T09:57:02;22.50;99.90
29713;DHT22;16623;53.632;10.016;2023-08-24T09:59:31;22.40;99.90
29713;DHT22;16623;53.632;10.016;2023-08-24T10:02:00;22.40;99.90
29713;DHT22;16623;53.632;10.016;2023-08-24T10:04:29;23.20;99.90
29713;DHT22;16623;53.632;10.016;2023-08-24T10:07:08;22.30;99.90
29713;DHT22;16623;53.632;10.016;2023-08-24T10:10:02;22.30;99.90
29713;DHT22;16623;53.632;10.016;2023-08-24T10:12:41;22.30;99.90
29713;DHT22;16623;53.632;10.016;2023-08-24T10:15:07;22.30;99.90
29713;DHT22;16623;53.632;10.016;2023-08-24T10:17:36;22.50;99.90
29713;DHT22;16623;53.632;10.016;2023-08-24T10:20:03;22.70;99.90
29713;DHT22;16623;53.632;10.016;2023-08-24T10:22:34;22.90;99.90
29713;DHT22;16623;53.632;10.016;2023-08-24T10:25:00;23.30;99.90
29713;DHT22;16623;53.632;10.016;2023-08-24T10:27:27;23.60;99.90
29713;DHT22;16623;53.632;10.016;2023-08-24T10:29:53;24.00;99.90
29713;DHT22;16623;53.632;10.016;2023-08-24T10:32:22;24.40;99.90
29713;DHT22;16623;53.632;10.016;2023-08-24T10:34:49;24.80;99.90
29713;DHT22;16623;53.632;10.016;2023-08-24T10:37:15;24.80;99.90
29713;DHT22;16623;53.632;10.016;2023-08-24T10:39:45;25.00;99.90
29713;DHT22;16623;53.632;10.016;2023-08-24T10:42:12;25.00;99.90
29713;DHT22;16623;53.632;10.016;2023-08-24T10:44:39;25.30;99.90
29713;DHT22;16623;53.632;10.016;2023-08-24T10:47:12;25.90;99.90
29713;DHT22;16623;53.632;10.016;2023-08-24T10:49:42;26.30;99.90
29713;DHT22;16623;53.632;10.016;2023-08-24T10:52:30;26.60;99.90
29713;DHT22;16623;53.632;10.016;2023-08-24T10:54:56;27.00;99.90
29713;DHT22;16623;53.632;10.016;2023-08-24T10:57:24;27.00;99.90
29713;DHT22;16623;53.632;10.016;2023-08-24T11:00:04;27.00;99.90
29713;DHT22;16623;53.632;10.016;2023-08-24T11:03:01;26.80;99.90
29713;DHT22;16623;53.632;10.016;2023-08-24T11:05:29;26.20;99.90
29713;DHT22;16623;53.632;10.016;2023-08-24T11:08:00;25.40;99.90
29713;DHT22;16623;53.632;10.016;2023-08-24T11:10:33;24.60;99.90
29713;DHT22;16623;53.632;10.016;2023-08-24T11:15:39;24.20;99.90
29713;DHT22;16623;53.632;10.016;2023-08-24T11:18:25;24.20;99.90
29713;DHT22;16623;53.632;10.016;2023-08-24T11:21:04;24.00;99.90
29713;DHT22;16623;53.632;10.016;2023-08-24T11:23:31;24.00;99.90
29713;DHT22;16623;53.632;10.016;2023-08-24T11:25:58;24.00;99.90
29713;DHT22;16623;53.632;10.016;2023-08-24T11:28:29;23.90;99.90
29713;DHT22;16623;53.632;10.016;2023-08-24T11:30:56;23.80;99.90
29713;DHT22;16623;53.632;10.016;2023-08-24T11:33:29;23.80;99.90
29713;DHT22;16623;53.632;10.016;2023-08-24T11:35:55;23.90;99.90
29713;DHT22;16623;53.632;10.016;2023-08-24T11:38:20;23.90;99.90
29713;DHT22;16623;53.632;10.016;2023-08-24T11:40:46;24.00;99.90
29713;DHT22;16623;53.632;10.016;2023-08-24T11:43:11;24.30;99.90
29713;DHT22;16623;53.632;10.016;2023-08-24T11:45:37;24.40;99.90
29713;DHT22;16623;53.632;10.016;2023-08-24T11:48:04;24.50;99.90
29713;DHT22;16623;53.632;10.016;2023-08-24T11:50:31;24.80;99.90
29713;DHT22;16623;53.632;10.016;2023-08-24T11:52:56;24.60;99.90
29713;DHT22;16623;53.632;10.016;2023-08-24T11:55:22;24.50;99.90
29713;DHT22;16623;53.632;10.016;2023-08-24T11:57:49;24.50;99.90
29713;DHT22;16623;53.632;10.016;2023-08-24T12:00:14;24.50;99.90
29713;DHT22;16623;53.632;10.016;2023-08-24T12:02:42;24.60;99.90
29713;DHT22;16623;53.632;10.016;2023-08-24T12:05:08;24.50;99.90
29713;DHT22;16623;53.632;10.016;2023-08-24T12:07:46;24.50;99.90
29713;DHT22;16623;53.632;10.016;2023-08-24T12:10:12;24.50;99.90
29713;DHT22;16623;53.632;10.016;2023-08-24T12:12:38;24.60;99.90
29713;DHT22;16623;53.632;10.016;2023-08-24T12:15:03;24.70;99.90
29713;DHT22;16623;53.632;10.016;2023-08-24T12:17:30;24.70;99.90
29713;DHT22;16623;53.632;10.016;2023-08-24T12:20:07;24.70;99.90
29713;DHT22;16623;53.632;10.016;2023-08-24T12:22:35;24.70;99.90
29713;DHT22;16623;53.632;10.016;2023-08-24T12:25:02;24.80;99.90
29713;DHT22;16623;53.632;10.016;2023-08-24T12:27:28;24.90;99.90
29713;DHT22;16623;53.632;10.016;2023-08-24T12:29:53;24.90;99.90
29713;DHT22;16623;53.632;10.016;2023-08-24T12:32:20;24.90;99.90
29713;DHT22;16623;53.632;10.016;2023-08-24T12:34:48;24.90;99.90
29713;DHT22;16623;53.632;10.016;2023-08-24T12:37:13;24.90;99.90
29713;DHT22;16623;53.632;10.016;2023-08-24T12:39:39;24.90;99.90
29713;DHT22;16623;53.632;10.016;2023-08-24T12:42:05;24.90;99.90
29713;DHT22;16623;53.632;10.016;2023-08-24T12:44:31;24.80;99.90
29713;DHT22;16623;53.632;10.016;2023-08-24T12:46:57;24.70;99.90
29713;DHT22;16623;53.632;10.016;2023-08-24T12:49:25;24.90;99.90
29713;DHT22;16623;53.632;10.016;2023-08-24T12:51:51;24.90;99.90
29713;DHT22;16623;53.632;10.016;2023-08-24T12:54:16;24.80;99.90
29713;DHT22;16623;53.632;10.016;2023-08-24T12:56:42;25.10;99.90
29713;DHT22;16623;53.632;10.016;2023-08-24T12:59:07;24.80;99.90
29713;DHT22;16623;53.632;10.016;2023-08-24T13:01:33;24.80;99.90
29713;DHT22;16623;53.632;10.016;2023-08-24T13:03:58;24.60;99.90
29713;DHT22;16623;53.632;10.016;2023-08-24T13:06:26;24.70;99.90
29713;DHT22;16623;53.632;10.016;2023-08-24T13:08:55;24.90;99.90
29713;DHT22;16623;53.632;10.016;2023-08-24T13:11:21;24.80;99.90
29713;DHT22;16623;53.632;10.016;2023-08-24T13:13:56;24.90;99.90
29713;DHT22;16623;53.632;10.016;2023-08-24T13:16:22;24.90;99.90
29713;DHT22;16623;53.632;10.016;2023-08-24T13:18:47;25.00;99.90
29713;DHT22;16623;53.632;10.016;2023-08-24T13:21:13;23.60;99.90
29713;DHT22;16623;53.632;10.016;2023-08-24T13:23:38;25.00;99.90
29713;DHT22;16623;53.632;10.016;2023-08-24T13:26:04;25.00;99.90
29713;DHT22;16623;53.632;10.016;2023-08-24T13:28:29;25.10;99.90
29713;DHT22;16623;53.632;10.016;2023-08-24T13:30:55;25.00;99.90
29713;DHT22;16623;53.632;10.016;2023-08-24T13:33:20;24.50;99.90
29713;DHT22;16623;53.632;10.016;2023-08-24T13:35:46;25.10;99.90
29713;DHT22;16623;53.632;10.016;2023-08-24T13:38:11;25.10;99.90
29713;DHT22;16623;53.632;10.016;2023-08-24T13:40:37;25.10;99.90
29713;DHT22;16623;53.632;10.016;2023-08-24T13:43:03;25.00;99.90
29713;DHT22;16623;53.632;10.016;2023-08-24T13:45:30;25.00;99.90
29713;DHT22;16623;53.632;10.016;2023-08-24T13:47:56;24.90;99.90
29713;DHT22;16623;53.632;10.016;2023-08-24T13:50:22;24.90;99.90
29713;DHT22;16623;53.632;10.016;2023-08-24T13:52:47;24.80;99.90
29713;DHT22;16623;53.632;10.016;2023-08-24T13:55:13;24.90;99.90
29713;DHT22;16623;53.632;10.016;2023-08-24T13:57:38;24.90;99.90
29713;DHT22;16623;53.632;10.016;2023-08-24T14:00:04;24.90;99.90
29713;DHT22;16623;53.632;10.016;2023-08-24T14:02:33;24.90;99.90
29713;DHT22;16623;53.632;10.016;2023-08-24T14:04:58;24.90;99.90
29713;DHT22;16623;53.632;10.016;2023-08-24T14:07:24;25.00;99.90
29713;DHT22;16623;53.632;10.016;2023-08-24T14:09:49;25.10;99.90
29713;DHT22;16623;53.632;10.016;2023-08-24T14:12:17;25.00;99.90
29713;DHT22;16623;53.632;10.016;2023-08-24T14:14:43;24.80;99.90
29713;DHT22;16623;53.632;10.016;2023-08-24T14:17:08;24.90;99.90
29713;DHT22;16623;53.632;10.016;2023-08-24T14:19:34;25.00;99.90
29713;DHT22;16623;53.632;10.016;2023-08-24T14:21:59;25.00;99.90
29713;DHT22;16623;53.632;10.016;2023-08-24T14:24:24;25.00;99.90
29713;DHT22;16623;53.632;10.016;2023-08-24T14:26:50;25.00;99.90
29713;DHT22;16623;53.632;10.016;2023-08-24T14:29:16;25.00;99.90
29713;DHT22;16623;53.632;10.016;2023-08-24T14:31:44;24.90;99.90
29713;DHT22;16623;53.632;10.016;2023-08-24T14:34:09;25.00;99.90
29713;DHT22;16623;53.632;10.016;2023-08-24T14:36:35;25.00;99.90
29713;DHT22;16623;53.632;10.016;2023-08-24T14:39:01;24.90;99.90
29713;DHT22;16623;53.632;10.016;2023-08-24T14:41:27;24.90;99.90
29713;DHT22;16623;53.632;10.016;2023-08-24T14:43:52;25.00;99.90
29713;DHT22;16623;53.632;10.016;2023-08-24T14:46:18;25.10;99.90
29713;DHT22;16623;53.632;10.016;2023-08-24T14:48:43;25.00;99.90
29713;DHT22;16623;53.632;10.016;2023-08-24T14:51:09;24.90;99.90
29713;DHT22;16623;53.632;10.016;2023-08-24T14:53:34;25.00;99.90
29713;DHT22;16623;53.632;10.016;2023-08-24T14:56:00;25.00;99.90
29713;DHT22;16623;53.632;10.016;2023-08-24T14:58:26;25.00;99.90
29713;DHT22;16623;53.632;10.016;2023-08-24T15:00:57;25.00;99.90
29713;DHT22;16623;53.632;10.016;2023-08-24T15:03:23;25.40;99.90
29713;DHT22;16623;53.632;10.016;2023-08-24T15:06:02;25.00;99.90
29713;DHT22;16623;53.632;10.016;2023-08-24T15:08:32;25.00;99.90
29713;DHT22;16623;53.632;10.016;2023-08-24T15:10:59;25.10;99.90
29713;DHT22;16623;53.632;10.016;2023-08-24T15:13:26;25.10;99.90
29713;DHT22;16623;53.632;10.016;2023-08-24T15:15:54;25.20;99.90
29713;DHT22;16623;53.632;10.016;2023-08-24T15:18:21;25.20;99.90
29713;DHT22;16623;53.632;10.016;2023-08-24T15:20:46;25.20;99.90